Decoded Metar for USSS (SVERDLOVSK in RUSSIA) (IATA:SVX) | Meteo·Mobile Aviation Weather
aviador You're here:

USSS Decoded Metar

SVERDLOVSK in RUSSIA
Report Time2019-04-18 20:00:00
UTC Time2019-04-18 20:34:29
Flight Rules vfr VFR
WindCalm
Visibility9999 m
Phenomena:N/A
Clouds:N/A
Expected CloudBase > 1,200 ft AGL from Temp-Dew spread
CeilingNone
Temp-7°C (ISA -20)
Dew Point-10°C (79% RH)
AAT-10.1°C
QNH1026 hPa
Density Alt-2,175 ft
Elevation764 ft
Report Wrong Elevation
Raw Report
USSS 182000Z 00000MPS CAVOK M07/M10 Q1026 R26R/120050 NOSIG RMK
QFE748/0998=

Extra information for USSS:More info

Metar Taf Metar & Taf Last 4 Metars F.Rules Stats Wind Profile Meteogram Temp Stats Airport Information Weather charts Add Link Nearby VenuesMetar ALERT Operation Metar Decoded Social comments